Nearby METAR Reports

 

KAUS - Austin, Texas, USA
Distance from station: WNW 16mi, 26km
Updated: Wed, 17-Oct-2018 7:53pm CDT
Overcast
Overcast
 Wind from NNE
Wind: NNE 21 mph , 33 km/h
Temperature: 54°F , 12°C
Dew Point: 52°F , 11°C
Humidity: 94%
Barometer: 30.29 inHg , 1025.7 hPa
Clouds: Overcast
Visibility: 10 miles , 16 km
Cloud details: Overcast 900 ft
2018/10/18 00:53 KAUS 180053Z 02018KT 10SM OVC009 12/11 A3029 RMK AO2 SLP259 T01220106
KEDC - Austin Exec, Texas, USA
Distance from station: NNW 21mi, 34km
Updated: Wed, 17-Oct-2018 7:55pm CDT
Overcast
Overcast
 Wind from N
Wind: N 14 mph , 22 km/h, Gust: 20 mph , 31 km/h
Temperature: 50°F , 10°C
Wind Chill: 45°F , 7°C
Dew Point: 50°F , 10°C
Humidity: 100%
Barometer: 30.32 inHg , 1026.8 hPa
Clouds: Overcast
Visibility: 7 miles , 11 km
Cloud details: Overcast 500 ft
2018/10/18 00:55 KEDC 180055Z AUTO 01012G17KT 7SM OVC005 10/10 A3032 RMK AO2
 
KATT - Austin/Mabry, Texas, USA
Distance from station: NW 25mi, 39km
Updated: Wed, 17-Oct-2018 7:51pm CDT
Overcast
Overcast
 Wind from NNE
Wind: NNE 10 mph , 17 km/h, Gust: 17 mph , 28 km/h
Temperature: 54°F , 12°C
Dew Point: 50°F , 10°C
Humidity: 88%
Barometer: 30.31 inHg , 1026.4 hPa
Clouds: Overcast
Visibility: 10 miles , 16 km
Cloud details: Overcast 900 ft
2018/10/18 00:51 KATT 180051Z AUTO 02009G15KT 10SM OVC009 12/10 A3031 RMK AO2 RAE16 SLP266 P0000 T01170100
KGYB - Giddings-Lee, Texas, USA
Distance from station: E 27mi, 43km
Updated: Wed, 17-Oct-2018 7:55pm CDT
Mist, Overcast
Mist, Overcast
 Wind from N
Wind: N 9 mph , 15 km/h, Gust: 17 mph , 28 km/h
Temperature: 52°F , 11°C
Dew Point: 50°F , 10°C
Humidity: 94%
Barometer: 30.28 inHg , 1025.4 hPa
Summary: Mist
Clouds: Overcast
Visibility: 4 miles , 6 km
Cloud details: Overcast 500 ft
2018/10/18 00:55 KGYB 180055Z AUTO 36008G15KT 4SM BR OVC005 11/10 A3028 RMK AO2 T01050098
 
KHYI - San Marcos, Texas, USA
Distance from station: WSW 31mi, 49km
Updated: Wed, 17-Oct-2018 7:56pm CDT
Overcast
Overcast
 
Barometer: 30.29 inHg , 1025.7 hPa
Clouds: Overcast
Visibility: 10 miles , 16 km
Cloud details: Mostly cloudy 900 ft
Overcast 1200 ft
2018/10/18 00:56 KHYI 180056Z AUTO 10SM BKN009 OVC012 A3029 RMK AO2 DZE2359 CIG 007V010 SLPNO P0000 FZRANO $
K3T5 - La Grange, Texas, USA
Distance from station: ESE 32mi, 52km
Updated: Wed, 17-Oct-2018 7:55pm CDT
Light drizzle, Overcast
Light drizzle, Overcast
 Wind from N
Wind: N 9 mph , 15 km/h, Gust: 16 mph , 26 km/h
Temperature: 59°F , 15°C
Dew Point: 59°F , 15°C
Humidity: 100%
Barometer: 30.24 inHg , 1024 hPa
Summary: Light Drizzle
Clouds: Overcast
Visibility: 4 miles , 6 km
Cloud details: Overcast 700 ft
2018/10/18 00:55 K3T5 180055Z AUTO 35008G14KT 4SM -DZ OVC007 15/15 A3024 RMK AO2 P0001 T01450145
 
KT20 - Gonzales Muni, Texas, USA
Distance from station: S 41mi, 67km
Updated: Wed, 17-Oct-2018 7:55pm CDT
Overcast
Overcast
 Wind from N
Wind: N 14 mph , 22 km/h, Gust: 22 mph , 35 km/h
Temperature: 57°F , 14°C
Dew Point: 57°F , 14°C
Humidity: 100%
Barometer: 30.25 inHg , 1024.4 hPa
Clouds: Overcast
Visibility: 10 miles , 16 km
Cloud details: Overcast 600 ft
2018/10/18 00:55 KT20 180055Z AUTO 01012G19KT 10SM OVC006 14/14 A3025 RMK AO2 T01430140
KRYW - Lago Vista, Texas, USA
Distance from station: NW 42mi, 67km
Updated: Wed, 17-Oct-2018 7:55pm CDT
Heavy rain, Overcast
Heavy rain, Overcast
 Wind from NE
Wind: NE 14 mph , 22 km/h, Gust: 22 mph , 35 km/h
Temperature: 52°F , 11°C
Dew Point: 52°F , 11°C
Humidity: 100%
Barometer: 30.30 inHg , 1026.1 hPa
Summary: Heavy rain
Clouds: Overcast
Visibility: 7 miles , 11 km
Cloud details: Overcast 200 ft
2018/10/18 00:55 KRYW 180055Z AUTO 04012G19KT 7SM +RA OVC002 11/11 A3030 RMK AO2 P0008 T01070107
 
KGTU - Georgetown, Texas, USA
Distance from station: NNW 42mi, 68km
Updated: Wed, 17-Oct-2018 8:06pm CDT
Light rain, Mist, Overcast
Light rain, Mist, Overcast
 Wind from NNE
Wind: NNE 16 mph , 26 km/h, Gust: 22 mph , 35 km/h
Temperature: 52°F , 11°C
Dew Point: 48°F , 9°C
Humidity: 88%
Barometer: 30.34 inHg , 1027.4 hPa
Summary: Light rain, Mist
Clouds: Overcast
Visibility: 9 miles , 14 km
Cloud details: Overcast 600 ft
2018/10/18 01:06 KGTU 180106Z 02014G19KT 9SM -RA BR OVC006 11/09 A3034 RMK AO2 P0001
KBAZ - New Braunfels, Texas, USA
Distance from station: SW 46mi, 74km
Updated: Wed, 17-Oct-2018 7:51pm CDT
Overcast
Overcast
 Wind from NNE
Wind: NNE 18 mph , 30 km/h
Temperature: 57°F , 14°C
Dew Point: 54°F , 12°C
Humidity: 88%
Barometer: 30.25 inHg , 1024.4 hPa
Clouds: Overcast
Visibility: 10 miles , 16 km
Cloud details: Overcast 1100 ft
2018/10/18 00:51 KBAZ 180051Z AUTO 03016KT 10SM OVC011 14/12 A3025 RMK AO2 RAE2353 SLP242 P0000 T01390117 $